sensor_id;sensor_type;location;lat;lon;timestamp;temperature;humidity
40374;DHT22;26079;45.958;12.492;2024-03-22T00:01:55;9.60;99.90
40374;DHT22;26079;45.958;12.492;2024-03-22T00:04:22;9.50;99.90
40374;DHT22;26079;45.958;12.492;2024-03-22T00:06:49;9.50;99.90
40374;DHT22;26079;45.958;12.492;2024-03-22T00:09:15;9.50;99.90
40374;DHT22;26079;45.958;12.492;2024-03-22T00:11:42;9.40;99.90
40374;DHT22;26079;45.958;12.492;2024-03-22T00:14:08;9.50;99.90
40374;DHT22;26079;45.958;12.492;2024-03-22T00:16:34;9.50;99.90
40374;DHT22;26079;45.958;12.492;2024-03-22T00:19:01;9.40;99.90
40374;DHT22;26079;45.958;12.492;2024-03-22T00:21:27;9.30;99.90
40374;DHT22;26079;45.958;12.492;2024-03-22T00:23:53;9.10;99.90
40374;DHT22;26079;45.958;12.492;2024-03-22T00:26:19;9.00;99.90
40374;DHT22;26079;45.958;12.492;2024-03-22T00:28:46;8.90;99.90
40374;DHT22;26079;45.958;12.492;2024-03-22T00:31:11;8.90;99.90
40374;DHT22;26079;45.958;12.492;2024-03-22T00:33:37;8.90;99.90
40374;DHT22;26079;45.958;12.492;2024-03-22T00:36:03;8.80;99.90
40374;DHT22;26079;45.958;12.492;2024-03-22T00:38:29;8.80;99.90
40374;DHT22;26079;45.958;12.492;2024-03-22T00:40:55;8.80;99.90
40374;DHT22;26079;45.958;12.492;2024-03-22T00:43:21;8.90;99.90
40374;DHT22;26079;45.958;12.492;2024-03-22T00:45:47;8.80;99.90
40374;DHT22;26079;45.958;12.492;2024-03-22T00:48:13;8.80;99.90
40374;DHT22;26079;45.958;12.492;2024-03-22T00:50:38;8.80;99.90
40374;DHT22;26079;45.958;12.492;2024-03-22T00:53:04;8.90;99.90
40374;DHT22;26079;45.958;12.492;2024-03-22T00:55:31;8.90;99.90
40374;DHT22;26079;45.958;12.492;2024-03-22T00:57:57;8.90;99.90
40374;DHT22;26079;45.958;12.492;2024-03-22T01:00:23;8.90;99.90
40374;DHT22;26079;45.958;12.492;2024-03-22T01:02:50;8.80;99.90
40374;DHT22;26079;45.958;12.492;2024-03-22T01:05:19;8.80;99.90
40374;DHT22;26079;45.958;12.492;2024-03-22T01:07:44;8.80;99.90
40374;DHT22;26079;45.958;12.492;2024-03-22T01:10:11;8.70;99.90
40374;DHT22;26079;45.958;12.492;2024-03-22T01:12:37;8.70;99.90
40374;DHT22;26079;45.958;12.492;2024-03-22T01:15:05;8.80;99.90
40374;DHT22;26079;45.958;12.492;2024-03-22T01:17:30;8.80;99.90
40374;DHT22;26079;45.958;12.492;2024-03-22T01:19:56;8.60;99.90
40374;DHT22;26079;45.958;12.492;2024-03-22T01:22:22;8.50;99.90
40374;DHT22;26079;45.958;12.492;2024-03-22T01:24:48;8.50;99.90
40374;DHT22;26079;45.958;12.492;2024-03-22T01:27:14;8.60;99.90
40374;DHT22;26079;45.958;12.492;2024-03-22T01:29:40;8.40;99.90
40374;DHT22;26079;45.958;12.492;2024-03-22T01:32:06;8.30;99.90
40374;DHT22;26079;45.958;12.492;2024-03-22T01:34:32;8.30;99.90
40374;DHT22;26079;45.958;12.492;2024-03-22T01:36:58;8.30;99.90
40374;DHT22;26079;45.958;12.492;2024-03-22T01:39:24;8.40;99.90
40374;DHT22;26079;45.958;12.492;2024-03-22T01:41:50;8.40;99.90
40374;DHT22;26079;45.958;12.492;2024-03-22T01:44:16;8.30;99.90
40374;DHT22;26079;45.958;12.492;2024-03-22T01:46:44;8.20;99.90
40374;DHT22;26079;45.958;12.492;2024-03-22T01:49:10;8.20;99.90
40374;DHT22;26079;45.958;12.492;2024-03-22T01:51:37;8.20;99.90
40374;DHT22;26079;45.958;12.492;2024-03-22T01:54:03;8.10;99.90
40374;DHT22;26079;45.958;12.492;2024-03-22T01:56:30;8.10;99.90
40374;DHT22;26079;45.958;12.492;2024-03-22T01:58:56;8.10;99.90
40374;DHT22;26079;45.958;12.492;2024-03-22T02:01:23;8.20;99.90
40374;DHT22;26079;45.958;12.492;2024-03-22T02:03:49;8.20;99.90
40374;DHT22;26079;45.958;12.492;2024-03-22T02:06:14;8.20;99.90
40374;DHT22;26079;45.958;12.492;2024-03-22T02:08:40;8.20;99.90
40374;DHT22;26079;45.958;12.492;2024-03-22T02:11:08;8.20;99.90
40374;DHT22;26079;45.958;12.492;2024-03-22T02:13:34;8.10;99.90
40374;DHT22;26079;45.958;12.492;2024-03-22T02:16:03;8.00;99.90
40374;DHT22;26079;45.958;12.492;2024-03-22T02:18:28;8.00;99.90
40374;DHT22;26079;45.958;12.492;2024-03-22T02:20:56;8.10;99.90
40374;DHT22;26079;45.958;12.492;2024-03-22T02:23:37;8.00;99.90
40374;DHT22;26079;45.958;12.492;2024-03-22T02:26:04;7.80;99.90
40374;DHT22;26079;45.958;12.492;2024-03-22T02:28:31;7.70;99.90
40374;DHT22;26079;45.958;12.492;2024-03-22T02:30:58;7.60;99.90
40374;DHT22;26079;45.958;12.492;2024-03-22T02:33:24;7.60;99.90
40374;DHT22;26079;45.958;12.492;2024-03-22T02:35:50;7.60;99.90
40374;DHT22;26079;45.958;12.492;2024-03-22T02:38:16;7.60;99.90
40374;DHT22;26079;45.958;12.492;2024-03-22T02:40:47;7.70;99.90
40374;DHT22;26079;45.958;12.492;2024-03-22T02:43:13;7.70;99.90
40374;DHT22;26079;45.958;12.492;2024-03-22T02:45:39;7.80;99.90
40374;DHT22;26079;45.958;12.492;2024-03-22T02:48:05;7.80;99.90
40374;DHT22;26079;45.958;12.492;2024-03-22T02:50:38;7.80;99.90
40374;DHT22;26079;45.958;12.492;2024-03-22T02:53:04;7.80;99.90
40374;DHT22;26079;45.958;12.492;2024-03-22T02:55:35;7.70;99.90
40374;DHT22;26079;45.958;12.492;2024-03-22T02:58:01;7.70;99.90
40374;DHT22;26079;45.958;12.492;2024-03-22T03:00:28;7.70;99.90
40374;DHT22;26079;45.958;12.492;2024-03-22T03:02:53;7.70;99.90
40374;DHT22;26079;45.958;12.492;2024-03-22T03:05:19;7.80;99.90
40374;DHT22;26079;45.958;12.492;2024-03-22T03:07:45;7.90;99.90
40374;DHT22;26079;45.958;12.492;2024-03-22T03:10:12;7.70;99.90
40374;DHT22;26079;45.958;12.492;2024-03-22T03:12:38;7.60;99.90
40374;DHT22;26079;45.958;12.492;2024-03-22T03:15:03;7.60;99.90
40374;DHT22;26079;45.958;12.492;2024-03-22T03:17:29;7.60;99.90
40374;DHT22;26079;45.958;12.492;2024-03-22T03:19:55;7.50;99.90
40374;DHT22;26079;45.958;12.492;2024-03-22T03:22:20;7.40;99.90
40374;DHT22;26079;45.958;12.492;2024-03-22T03:24:46;7.30;99.90
40374;DHT22;26079;45.958;12.492;2024-03-22T03:27:12;7.30;99.90
40374;DHT22;26079;45.958;12.492;2024-03-22T03:29:38;7.30;99.90
40374;DHT22;26079;45.958;12.492;2024-03-22T03:32:03;7.40;99.90
40374;DHT22;26079;45.958;12.492;2024-03-22T03:34:29;7.50;99.90
40374;DHT22;26079;45.958;12.492;2024-03-22T03:36:55;7.50;99.90
40374;DHT22;26079;45.958;12.492;2024-03-22T03:39:21;7.40;99.90
40374;DHT22;26079;45.958;12.492;2024-03-22T03:41:46;7.10;99.90
40374;DHT22;26079;45.958;12.492;2024-03-22T03:44:12;7.10;99.90
40374;DHT22;26079;45.958;12.492;2024-03-22T03:46:37;7.00;99.90
40374;DHT22;26079;45.958;12.492;2024-03-22T03:49:03;7.00;99.90
40374;DHT22;26079;45.958;12.492;2024-03-22T03:51:29;7.00;99.90
40374;DHT22;26079;45.958;12.492;2024-03-22T03:53:54;7.10;99.90
40374;DHT22;26079;45.958;12.492;2024-03-22T03:56:20;7.20;99.90
40374;DHT22;26079;45.958;12.492;2024-03-22T03:58:46;7.20;99.90
40374;DHT22;26079;45.958;12.492;2024-03-22T04:01:12;7.20;99.90
40374;DHT22;26079;45.958;12.492;2024-03-22T04:03:38;7.20;99.90
40374;DHT22;26079;45.958;12.492;2024-03-22T04:06:03;7.00;99.90
40374;DHT22;26079;45.958;12.492;2024-03-22T04:08:29;7.00;99.90
40374;DHT22;26079;45.958;12.492;2024-03-22T04:10:56;6.90;99.90
40374;DHT22;26079;45.958;12.492;2024-03-22T04:13:26;6.90;99.90
40374;DHT22;26079;45.958;12.492;2024-03-22T04:15:52;6.90;99.90
40374;DHT22;26079;45.958;12.492;2024-03-22T04:18:18;6.90;99.90
40374;DHT22;26079;45.958;12.492;2024-03-22T04:20:54;6.90;99.90
40374;DHT22;26079;45.958;12.492;2024-03-22T04:23:20;6.90;99.90
40374;DHT22;26079;45.958;12.492;2024-03-22T04:25:57;6.90;99.90
40374;DHT22;26079;45.958;12.492;2024-03-22T04:28:24;6.90;99.90
40374;DHT22;26079;45.958;12.492;2024-03-22T04:31:03;6.90;99.90
40374;DHT22;26079;45.958;12.492;2024-03-22T04:33:30;6.90;99.90
40374;DHT22;26079;45.958;12.492;2024-03-22T04:35:56;6.90;99.90
40374;DHT22;26079;45.958;12.492;2024-03-22T04:38:23;6.90;99.90
40374;DHT22;26079;45.958;12.492;2024-03-22T04:40:48;6.90;99.90
40374;DHT22;26079;45.958;12.492;2024-03-22T04:43:15;6.90;99.90
40374;DHT22;26079;45.958;12.492;2024-03-22T04:45:45;6.90;99.90
40374;DHT22;26079;45.958;12.492;2024-03-22T04:48:13;7.00;99.90
40374;DHT22;26079;45.958;12.492;2024-03-22T04:50:39;7.00;99.90
40374;DHT22;26079;45.958;12.492;2024-03-22T04:53:05;6.90;99.90
40374;DHT22;26079;45.958;12.492;2024-03-22T04:55:31;6.90;99.90
40374;DHT22;26079;45.958;12.492;2024-03-22T04:57:58;6.90;99.90
40374;DHT22;26079;45.958;12.492;2024-03-22T05:00:24;6.90;99.90
40374;DHT22;26079;45.958;12.492;2024-03-22T05:02:53;6.90;99.90
40374;DHT22;26079;45.958;12.492;2024-03-22T05:05:18;6.90;99.90
40374;DHT22;26079;45.958;12.492;2024-03-22T05:07:44;6.90;99.90
40374;DHT22;26079;45.958;12.492;2024-03-22T05:10:10;7.00;99.90
40374;DHT22;26079;45.958;12.492;2024-03-22T05:12:36;7.00;99.90
40374;DHT22;26079;45.958;12.492;2024-03-22T05:15:06;7.00;99.90
40374;DHT22;26079;45.958;12.492;2024-03-22T05:17:32;7.10;99.90
40374;DHT22;26079;45.958;12.492;2024-03-22T05:19:59;7.20;99.90
40374;DHT22;26079;45.958;12.492;2024-03-22T05:22:24;7.20;99.90
40374;DHT22;26079;45.958;12.492;2024-03-22T05:24:50;7.20;99.90
40374;DHT22;26079;45.958;12.492;2024-03-22T05:27:17;7.30;99.90
40374;DHT22;26079;45.958;12.492;2024-03-22T05:29:42;7.40;99.90
40374;DHT22;26079;45.958;12.492;2024-03-22T05:32:08;7.30;99.90
40374;DHT22;26079;45.958;12.492;2024-03-22T05:34:34;7.20;99.90
40374;DHT22;26079;45.958;12.492;2024-03-22T05:37:01;7.20;99.90
40374;DHT22;26079;45.958;12.492;2024-03-22T05:39:27;7.20;99.90
40374;DHT22;26079;45.958;12.492;2024-03-22T05:41:52;7.10;99.90
40374;DHT22;26079;45.958;12.492;2024-03-22T05:44:19;7.00;99.90
40374;DHT22;26079;45.958;12.492;2024-03-22T05:46:45;7.00;99.90
40374;DHT22;26079;45.958;12.492;2024-03-22T05:49:11;7.00;99.90
40374;DHT22;26079;45.958;12.492;2024-03-22T05:51:36;7.30;99.90
40374;DHT22;26079;45.958;12.492;2024-03-22T05:54:03;7.60;99.90
40374;DHT22;26079;45.958;12.492;2024-03-22T05:56:29;7.80;99.90
40374;DHT22;26079;45.958;12.492;2024-03-22T05:58:54;7.90;99.90
40374;DHT22;26079;45.958;12.492;2024-03-22T06:01:20;7.90;99.90
40374;DHT22;26079;45.958;12.492;2024-03-22T06:03:45;7.80;99.90
40374;DHT22;26079;45.958;12.492;2024-03-22T06:06:11;7.90;99.90
40374;DHT22;26079;45.958;12.492;2024-03-22T06:08:37;8.10;99.90
40374;DHT22;26079;45.958;12.492;2024-03-22T06:11:06;8.00;99.90
40374;DHT22;26079;45.958;12.492;2024-03-22T06:13:32;8.10;99.90
40374;DHT22;26079;45.958;12.492;2024-03-22T06:15:58;8.20;99.90
40374;DHT22;26079;45.958;12.492;2024-03-22T06:18:24;8.10;99.90
40374;DHT22;26079;45.958;12.492;2024-03-22T06:20:50;8.00;99.90
40374;DHT22;26079;45.958;12.492;2024-03-22T06:23:16;8.00;99.90
40374;DHT22;26079;45.958;12.492;2024-03-22T06:25:51;8.00;99.90
40374;DHT22;26079;45.958;12.492;2024-03-22T06:28:17;8.00;99.90
40374;DHT22;26079;45.958;12.492;2024-03-22T06:30:43;8.00;99.90
40374;DHT22;26079;45.958;12.492;2024-03-22T06:33:08;8.10;99.90
40374;DHT22;26079;45.958;12.492;2024-03-22T06:35:34;8.30;99.90
40374;DHT22;26079;45.958;12.492;2024-03-22T06:37:59;8.50;99.90
40374;DHT22;26079;45.958;12.492;2024-03-22T06:40:28;8.70;99.90
40374;DHT22;26079;45.958;12.492;2024-03-22T06:42:54;8.90;99.90
40374;DHT22;26079;45.958;12.492;2024-03-22T06:45:19;9.00;99.90
40374;DHT22;26079;45.958;12.492;2024-03-22T06:47:45;9.20;99.90
40374;DHT22;26079;45.958;12.492;2024-03-22T06:50:11;9.30;99.90
40374;DHT22;26079;45.958;12.492;2024-03-22T06:52:37;9.50;99.90
40374;DHT22;26079;45.958;12.492;2024-03-22T06:55:03;9.70;99.90
40374;DHT22;26079;45.958;12.492;2024-03-22T06:57:29;9.80;99.90
40374;DHT22;26079;45.958;12.492;2024-03-22T06:59:55;9.90;99.90
40374;DHT22;26079;45.958;12.492;2024-03-22T07:02:20;10.10;99.90
40374;DHT22;26079;45.958;12.492;2024-03-22T07:04:46;10.20;99.90
40374;DHT22;26079;45.958;12.492;2024-03-22T07:07:12;10.20;99.90
40374;DHT22;26079;45.958;12.492;2024-03-22T07:09:37;10.30;99.90
40374;DHT22;26079;45.958;12.492;2024-03-22T07:12:03;10.40;99.90
40374;DHT22;26079;45.958;12.492;2024-03-22T07:14:29;10.50;99.90
40374;DHT22;26079;45.958;12.492;2024-03-22T07:16:55;10.60;99.90
40374;DHT22;26079;45.958;12.492;2024-03-22T07:19:21;10.70;99.90
40374;DHT22;26079;45.958;12.492;2024-03-22T07:21:49;10.80;99.90
40374;DHT22;26079;45.958;12.492;2024-03-22T07:24:15;10.90;99.90
40374;DHT22;26079;45.958;12.492;2024-03-22T07:26:41;11.00;99.90
40374;DHT22;26079;45.958;12.492;2024-03-22T07:29:25;11.00;99.90
40374;DHT22;26079;45.958;12.492;2024-03-22T07:31:54;11.00;99.90
40374;DHT22;26079;45.958;12.492;2024-03-22T07:34:19;11.10;99.90
40374;DHT22;26079;45.958;12.492;2024-03-22T07:36:45;11.20;99.90
40374;DHT22;26079;45.958;12.492;2024-03-22T07:39:11;11.20;99.90
40374;DHT22;26079;45.958;12.492;2024-03-22T07:41:36;11.30;99.90
40374;DHT22;26079;45.958;12.492;2024-03-22T07:44:02;11.40;99.90
40374;DHT22;26079;45.958;12.492;2024-03-22T07:46:28;11.50;99.90
40374;DHT22;26079;45.958;12.492;2024-03-22T07:48:54;11.70;99.90
40374;DHT22;26079;45.958;12.492;2024-03-22T07:51:22;11.80;99.90
40374;DHT22;26079;45.958;12.492;2024-03-22T07:53:48;11.90;98.90
40374;DHT22;26079;45.958;12.492;2024-03-22T07:56:14;12.10;98.70
40374;DHT22;26079;45.958;12.492;2024-03-22T07:58:41;12.30;96.70
40374;DHT22;26079;45.958;12.492;2024-03-22T08:01:06;12.40;96.40
40374;DHT22;26079;45.958;12.492;2024-03-22T08:03:32;12.50;96.00
40374;DHT22;26079;45.958;12.492;2024-03-22T08:05:58;12.60;97.20
40374;DHT22;26079;45.958;12.492;2024-03-22T08:08:24;12.70;96.80
40374;DHT22;26079;45.958;12.492;2024-03-22T08:10:50;12.80;95.40
40374;DHT22;26079;45.958;12.492;2024-03-22T08:13:16;13.00;94.10
40374;DHT22;26079;45.958;12.492;2024-03-22T08:15:42;13.10;93.90
40374;DHT22;26079;45.958;12.492;2024-03-22T08:18:09;13.20;94.70
40374;DHT22;26079;45.958;12.492;2024-03-22T08:20:34;13.30;94.00
40374;DHT22;26079;45.958;12.492;2024-03-22T08:23:00;13.30;92.30
40374;DHT22;26079;45.958;12.492;2024-03-22T08:25:26;13.40;93.20
40374;DHT22;26079;45.958;12.492;2024-03-22T08:27:52;13.60;91.90
40374;DHT22;26079;45.958;12.492;2024-03-22T08:30:21;13.70;92.80
40374;DHT22;26079;45.958;12.492;2024-03-22T08:32:47;13.80;90.90
40374;DHT22;26079;45.958;12.492;2024-03-22T08:35:13;13.80;91.10
40374;DHT22;26079;45.958;12.492;2024-03-22T08:37:39;13.90;91.40
40374;DHT22;26079;45.958;12.492;2024-03-22T08:40:05;13.90;90.80
40374;DHT22;26079;45.958;12.492;2024-03-22T08:42:31;14.00;90.40
40374;DHT22;26079;45.958;12.492;2024-03-22T08:44:56;14.10;91.20
40374;DHT22;26079;45.958;12.492;2024-03-22T08:47:22;14.20;90.70
40374;DHT22;26079;45.958;12.492;2024-03-22T08:49:48;14.40;90.90
40374;DHT22;26079;45.958;12.492;2024-03-22T08:52:15;14.50;90.70
40374;DHT22;26079;45.958;12.492;2024-03-22T08:54:40;14.70;90.20
40374;DHT22;26079;45.958;12.492;2024-03-22T08:57:06;14.80;89.70
40374;DHT22;26079;45.958;12.492;2024-03-22T08:59:32;14.80;90.40
40374;DHT22;26079;45.958;12.492;2024-03-22T09:01:58;14.90;90.20
40374;DHT22;26079;45.958;12.492;2024-03-22T09:04:25;15.00;90.40
40374;DHT22;26079;45.958;12.492;2024-03-22T09:06:50;15.10;89.80
40374;DHT22;26079;45.958;12.492;2024-03-22T09:09:16;15.10;90.10
40374;DHT22;26079;45.958;12.492;2024-03-22T09:11:42;15.30;89.50
40374;DHT22;26079;45.958;12.492;2024-03-22T09:14:08;15.40;88.70
40374;DHT22;26079;45.958;12.492;2024-03-22T09:16:34;15.50;88.10
40374;DHT22;26079;45.958;12.492;2024-03-22T09:19:00;15.60;88.30
40374;DHT22;26079;45.958;12.492;2024-03-22T09:21:25;15.70;86.90
40374;DHT22;26079;45.958;12.492;2024-03-22T09:23:51;15.80;87.10
40374;DHT22;26079;45.958;12.492;2024-03-22T09:26:17;15.90;87.50
40374;DHT22;26079;45.958;12.492;2024-03-22T09:28:46;16.20;86.70
40374;DHT22;26079;45.958;12.492;2024-03-22T09:31:11;16.30;87.00
40374;DHT22;26079;45.958;12.492;2024-03-22T09:33:37;16.30;87.20
40374;DHT22;26079;45.958;12.492;2024-03-22T09:36:03;16.30;84.00
40374;DHT22;26079;45.958;12.492;2024-03-22T09:38:29;16.30;83.70
40374;DHT22;26079;45.958;12.492;2024-03-22T09:40:55;16.30;84.30
40374;DHT22;26079;45.958;12.492;2024-03-22T09:43:21;16.30;83.60
40374;DHT22;26079;45.958;12.492;2024-03-22T09:45:48;16.30;84.50
40374;DHT22;26079;45.958;12.492;2024-03-22T09:48:19;16.40;82.50
40374;DHT22;26079;45.958;12.492;2024-03-22T09:50:47;16.50;82.50
40374;DHT22;26079;45.958;12.492;2024-03-22T09:53:18;16.50;83.50
40374;DHT22;26079;45.958;12.492;2024-03-22T09:55:46;16.50;84.30
40374;DHT22;26079;45.958;12.492;2024-03-22T09:58:12;16.50;85.30
40374;DHT22;26079;45.958;12.492;2024-03-22T10:00:38;16.70;84.70
40374;DHT22;26079;45.958;12.492;2024-03-22T10:03:04;16.80;82.60
40374;DHT22;26079;45.958;12.492;2024-03-22T10:05:31;16.80;83.20
40374;DHT22;26079;45.958;12.492;2024-03-22T10:07:57;16.80;81.80
40374;DHT22;26079;45.958;12.492;2024-03-22T10:10:24;16.80;83.70
40374;DHT22;26079;45.958;12.492;2024-03-22T10:12:50;17.10;81.90
40374;DHT22;26079;45.958;12.492;2024-03-22T10:15:26;17.30;80.80
40374;DHT22;26079;45.958;12.492;2024-03-22T10:17:52;17.40;81.10
40374;DHT22;26079;45.958;12.492;2024-03-22T10:20:21;17.50;79.90
40374;DHT22;26079;45.958;12.492;2024-03-22T10:22:58;17.60;80.70
40374;DHT22;26079;45.958;12.492;2024-03-22T10:25:25;17.70;80.80
40374;DHT22;26079;45.958;12.492;2024-03-22T10:27:53;17.70;80.50
40374;DHT22;26079;45.958;12.492;2024-03-22T10:30:19;17.80;79.40
40374;DHT22;26079;45.958;12.492;2024-03-22T10:32:44;17.80;80.90
40374;DHT22;26079;45.958;12.492;2024-03-22T10:35:14;17.90;79.90
40374;DHT22;26079;45.958;12.492;2024-03-22T10:37:40;18.00;80.70
40374;DHT22;26079;45.958;12.492;2024-03-22T10:40:07;18.10;79.50
40374;DHT22;26079;45.958;12.492;2024-03-22T10:42:42;18.20;79.10
40374;DHT22;26079;45.958;12.492;2024-03-22T10:45:09;18.30;78.10
40374;DHT22;26079;45.958;12.492;2024-03-22T10:47:37;18.30;77.00
40374;DHT22;26079;45.958;12.492;2024-03-22T10:50:12;18.30;75.50
40374;DHT22;26079;45.958;12.492;2024-03-22T10:52:48;18.30;74.90
40374;DHT22;26079;45.958;12.492;2024-03-22T10:55:22;18.20;76.30
40374;DHT22;26079;45.958;12.492;2024-03-22T10:57:50;18.10;76.50
40374;DHT22;26079;45.958;12.492;2024-03-22T11:00:17;18.10;76.90
40374;DHT22;26079;45.958;12.492;2024-03-22T11:02:53;18.10;77.60
40374;DHT22;26079;45.958;12.492;2024-03-22T11:05:19;18.30;76.60
40374;DHT22;26079;45.958;12.492;2024-03-22T11:07:45;18.50;76.40
40374;DHT22;26079;45.958;12.492;2024-03-22T11:10:14;18.60;74.90
40374;DHT22;26079;45.958;12.492;2024-03-22T11:12:40;18.80;75.10
40374;DHT22;26079;45.958;12.492;2024-03-22T11:15:07;18.80;75.30
40374;DHT22;26079;45.958;12.492;2024-03-22T11:17:52;18.80;75.00
40374;DHT22;26079;45.958;12.492;2024-03-22T11:20:17;18.80;74.50
40374;DHT22;26079;45.958;12.492;2024-03-22T11:22:43;18.90;75.00
40374;DHT22;26079;45.958;12.492;2024-03-22T11:25:31;19.00;74.90
40374;DHT22;26079;45.958;12.492;2024-03-22T11:27:57;19.20;74.80
40374;DHT22;26079;45.958;12.492;2024-03-22T11:30:28;19.40;73.00
40374;DHT22;26079;45.958;12.492;2024-03-22T11:32:54;19.40;73.90
40374;DHT22;26079;45.958;12.492;2024-03-22T11:35:20;19.40;72.60
40374;DHT22;26079;45.958;12.492;2024-03-22T11:37:45;19.40;72.60
40374;DHT22;26079;45.958;12.492;2024-03-22T11:40:11;19.40;70.20
40374;DHT22;26079;45.958;12.492;2024-03-22T11:42:50;19.40;70.50
40374;DHT22;26079;45.958;12.492;2024-03-22T11:45:18;19.40;70.50
40374;DHT22;26079;45.958;12.492;2024-03-22T11:47:45;19.40;70.10
40374;DHT22;26079;45.958;12.492;2024-03-22T11:50:15;19.40;72.10
40374;DHT22;26079;45.958;12.492;2024-03-22T11:52:42;19.40;71.50
40374;DHT22;26079;45.958;12.492;2024-03-22T11:55:09;19.60;67.70
40374;DHT22;26079;45.958;12.492;2024-03-22T11:57:35;19.60;67.80
40374;DHT22;26079;45.958;12.492;2024-03-22T12:00:02;19.50;70.70
40374;DHT22;26079;45.958;12.492;2024-03-22T12:02:32;19.50;69.20
40374;DHT22;26079;45.958;12.492;2024-03-22T12:04:57;19.70;70.50
40374;DHT22;26079;45.958;12.492;2024-03-22T12:07:24;19.80;71.30
40374;DHT22;26079;45.958;12.492;2024-03-22T12:09:49;19.90;68.30
40374;DHT22;26079;45.958;12.492;2024-03-22T12:12:15;19.90;69.50
40374;DHT22;26079;45.958;12.492;2024-03-22T12:14:41;20.10;70.10
40374;DHT22;26079;45.958;12.492;2024-03-22T12:17:07;20.00;69.90
40374;DHT22;26079;45.958;12.492;2024-03-22T12:19:33;20.00;71.20
40374;DHT22;26079;45.958;12.492;2024-03-22T12:21:59;20.00;72.80
40374;DHT22;26079;45.958;12.492;2024-03-22T12:24:26;20.10;71.20
40374;DHT22;26079;45.958;12.492;2024-03-22T12:26:52;20.00;71.60
40374;DHT22;26079;45.958;12.492;2024-03-22T12:29:19;20.00;72.80
40374;DHT22;26079;45.958;12.492;2024-03-22T12:31:45;20.10;72.60
40374;DHT22;26079;45.958;12.492;2024-03-22T12:34:11;20.10;71.60
40374;DHT22;26079;45.958;12.492;2024-03-22T12:36:37;20.10;71.20
40374;DHT22;26079;45.958;12.492;2024-03-22T12:39:02;20.10;72.70
40374;DHT22;26079;45.958;12.492;2024-03-22T12:41:29;20.20;71.60
40374;DHT22;26079;45.958;12.492;2024-03-22T12:43:55;20.30;69.50
40374;DHT22;26079;45.958;12.492;2024-03-22T12:46:21;20.30;67.80
40374;DHT22;26079;45.958;12.492;2024-03-22T12:48:47;20.30;68.30
40374;DHT22;26079;45.958;12.492;2024-03-22T12:51:13;20.30;67.60
40374;DHT22;26079;45.958;12.492;2024-03-22T12:53:39;20.30;66.50
40374;DHT22;26079;45.958;12.492;2024-03-22T12:56:04;20.30;67.20
40374;DHT22;26079;45.958;12.492;2024-03-22T12:58:30;20.40;67.70
40374;DHT22;26079;45.958;12.492;2024-03-22T13:00:57;20.40;67.80
40374;DHT22;26079;45.958;12.492;2024-03-22T13:03:23;20.40;66.90
40374;DHT22;26079;45.958;12.492;2024-03-22T13:05:50;20.40;66.90
40374;DHT22;26079;45.958;12.492;2024-03-22T13:08:16;20.50;66.00
40374;DHT22;26079;45.958;12.492;2024-03-22T13:10:42;20.50;65.60
40374;DHT22;26079;45.958;12.492;2024-03-22T13:13:10;20.40;64.70
40374;DHT22;26079;45.958;12.492;2024-03-22T13:15:36;20.40;64.10
40374;DHT22;26079;45.958;12.492;2024-03-22T13:18:05;20.40;65.50
40374;DHT22;26079;45.958;12.492;2024-03-22T13:20:31;20.50;66.90
40374;DHT22;26079;45.958;12.492;2024-03-22T13:22:56;20.60;65.20
40374;DHT22;26079;45.958;12.492;2024-03-22T13:25:22;20.70;65.40
40374;DHT22;26079;45.958;12.492;2024-03-22T13:27:48;20.80;65.00
40374;DHT22;26079;45.958;12.492;2024-03-22T13:30:14;20.80;65.80
40374;DHT22;26079;45.958;12.492;2024-03-22T13:32:40;20.80;64.10
40374;DHT22;26079;45.958;12.492;2024-03-22T13:35:06;20.80;64.80
40374;DHT22;26079;45.958;12.492;2024-03-22T13:37:32;20.90;65.00
40374;DHT22;26079;45.958;12.492;2024-03-22T13:39:58;20.90;62.90
40374;DHT22;26079;45.958;12.492;2024-03-22T13:42:25;20.90;65.40
40374;DHT22;26079;45.958;12.492;2024-03-22T13:44:51;20.90;64.40
40374;DHT22;26079;45.958;12.492;2024-03-22T13:47:17;20.90;63.60
40374;DHT22;26079;45.958;12.492;2024-03-22T13:49:43;20.90;65.00
40374;DHT22;26079;45.958;12.492;2024-03-22T13:52:10;21.00;64.00
40374;DHT22;26079;45.958;12.492;2024-03-22T13:54:36;20.90;63.40
40374;DHT22;26079;45.958;12.492;2024-03-22T13:57:02;20.80;64.40
40374;DHT22;26079;45.958;12.492;2024-03-22T13:59:29;20.80;63.80
40374;DHT22;26079;45.958;12.492;2024-03-22T14:01:55;20.80;63.70
40374;DHT22;26079;45.958;12.492;2024-03-22T14:04:24;20.70;63.60
40374;DHT22;26079;45.958;12.492;2024-03-22T14:06:51;20.70;63.60
40374;DHT22;26079;45.958;12.492;2024-03-22T14:09:17;20.70;64.00
40374;DHT22;26079;45.958;12.492;2024-03-22T14:11:43;20.70;63.60
40374;DHT22;26079;45.958;12.492;2024-03-22T14:14:09;20.70;63.60
40374;DHT22;26079;45.958;12.492;2024-03-22T14:16:37;20.70;63.60
40374;DHT22;26079;45.958;12.492;2024-03-22T14:19:03;20.70;63.60
40374;DHT22;26079;45.958;12.492;2024-03-22T14:21:29;20.70;63.30
40374;DHT22;26079;45.958;12.492;2024-03-22T14:23:54;20.60;64.00
40374;DHT22;26079;45.958;12.492;2024-03-22T14:26:20;20.60;63.50
40374;DHT22;26079;45.958;12.492;2024-03-22T14:28:46;20.50;63.40
40374;DHT22;26079;45.958;12.492;2024-03-22T14:31:13;20.60;65.10
40374;DHT22;26079;45.958;12.492;2024-03-22T14:33:39;20.70;63.20
40374;DHT22;26079;45.958;12.492;2024-03-22T14:36:06;20.70;62.80
40374;DHT22;26079;45.958;12.492;2024-03-22T14:38:33;20.70;63.60
40374;DHT22;26079;45.958;12.492;2024-03-22T14:40:59;20.80;62.50
40374;DHT22;26079;45.958;12.492;2024-03-22T14:43:26;20.70;63.00
40374;DHT22;26079;45.958;12.492;2024-03-22T14:45:55;20.70;63.00
40374;DHT22;26079;45.958;12.492;2024-03-22T14:48:21;20.70;62.70
40374;DHT22;26079;45.958;12.492;2024-03-22T14:50:48;20.70;62.80
40374;DHT22;26079;45.958;12.492;2024-03-22T14:53:15;20.60;62.90
40374;DHT22;26079;45.958;12.492;2024-03-22T14:56:01;20.50;63.40
40374;DHT22;26079;45.958;12.492;2024-03-22T14:58:34;20.50;64.10
40374;DHT22;26079;45.958;12.492;2024-03-22T15:01:01;20.40;63.40
40374;DHT22;26079;45.958;12.492;2024-03-22T15:03:27;20.40;64.50
40374;DHT22;26079;45.958;12.492;2024-03-22T15:05:58;20.50;64.20
40374;DHT22;26079;45.958;12.492;2024-03-22T15:08:25;20.50;64.10
40374;DHT22;26079;45.958;12.492;2024-03-22T15:10:51;20.50;63.20
40374;DHT22;26079;45.958;12.492;2024-03-22T15:13:18;20.40;61.80
40374;DHT22;26079;45.958;12.492;2024-03-22T15:15:55;20.30;62.50
40374;DHT22;26079;45.958;12.492;2024-03-22T15:18:21;20.20;62.30
40374;DHT22;26079;45.958;12.492;2024-03-22T15:20:47;20.20;64.10